sensor_id;sensor_type;location;lat;lon;timestamp;P1;durP1;ratioP1;P2;durP2;ratioP2
29938;SDS011;16799;50.844;5.304;2023-03-14T00:00:34;1.80;;;1.53;;
29938;SDS011;16799;50.844;5.304;2023-03-14T00:03:00;3.80;;;1.83;;
29938;SDS011;16799;50.844;5.304;2023-03-14T00:05:26;5.57;;;1.47;;
29938;SDS011;16799;50.844;5.304;2023-03-14T00:07:51;5.47;;;1.30;;
29938;SDS011;16799;50.844;5.304;2023-03-14T00:10:18;2.93;;;1.10;;
29938;SDS011;16799;50.844;5.304;2023-03-14T00:12:43;3.93;;;1.07;;
29938;SDS011;16799;50.844;5.304;2023-03-14T00:15:10;6.10;;;1.23;;
29938;SDS011;16799;50.844;5.304;2023-03-14T00:17:37;8.07;;;1.30;;
29938;SDS011;16799;50.844;5.304;2023-03-14T00:20:04;3.37;;;1.67;;
29938;SDS011;16799;50.844;5.304;2023-03-14T00:22:35;8.03;;;2.10;;
29938;SDS011;16799;50.844;5.304;2023-03-14T00:25:02;6.30;;;2.13;;
29938;SDS011;16799;50.844;5.304;2023-03-14T00:27:28;2.37;;;1.30;;
29938;SDS011;16799;50.844;5.304;2023-03-14T00:29:54;14.10;;;1.80;;
29938;SDS011;16799;50.844;5.304;2023-03-14T00:32:19;6.00;;;1.77;;
29938;SDS011;16799;50.844;5.304;2023-03-14T00:34:45;6.77;;;2.00;;
29938;SDS011;16799;50.844;5.304;2023-03-14T00:37:11;15.13;;;2.40;;
29938;SDS011;16799;50.844;5.304;2023-03-14T00:39:36;4.03;;;2.90;;
29938;SDS011;16799;50.844;5.304;2023-03-14T00:42:02;5.17;;;1.80;;
29938;SDS011;16799;50.844;5.304;2023-03-14T00:44:28;3.53;;;1.60;;
29938;SDS011;16799;50.844;5.304;2023-03-14T00:46:54;3.20;;;1.63;;
29938;SDS011;16799;50.844;5.304;2023-03-14T00:49:20;10.03;;;2.20;;
29938;SDS011;16799;50.844;5.304;2023-03-14T00:51:45;5.63;;;3.07;;
29938;SDS011;16799;50.844;5.304;2023-03-14T00:54:11;8.93;;;2.10;;
29938;SDS011;16799;50.844;5.304;2023-03-14T00:56:37;7.43;;;2.00;;
29938;SDS011;16799;50.844;5.304;2023-03-14T00:59:02;1.60;;;1.23;;
29938;SDS011;16799;50.844;5.304;2023-03-14T01:01:28;6.33;;;1.33;;
29938;SDS011;16799;50.844;5.304;2023-03-14T01:03:54;6.93;;;1.83;;
29938;SDS011;16799;50.844;5.304;2023-03-14T01:06:25;5.17;;;2.80;;
29938;SDS011;16799;50.844;5.304;2023-03-14T01:08:53;9.20;;;2.73;;
29938;SDS011;16799;50.844;5.304;2023-03-14T01:11:21;14.27;;;2.27;;
29938;SDS011;16799;50.844;5.304;2023-03-14T01:13:57;2.60;;;1.30;;
29938;SDS011;16799;50.844;5.304;2023-03-14T01:16:24;3.73;;;2.10;;
29938;SDS011;16799;50.844;5.304;2023-03-14T01:18:52;5.67;;;1.30;;
29938;SDS011;16799;50.844;5.304;2023-03-14T01:21:25;5.30;;;1.63;;
29938;SDS011;16799;50.844;5.304;2023-03-14T01:23:56;6.93;;;3.10;;
29938;SDS011;16799;50.844;5.304;2023-03-14T01:26:24;3.07;;;2.00;;
29938;SDS011;16799;50.844;5.304;2023-03-14T01:28:52;3.27;;;1.67;;
29938;SDS011;16799;50.844;5.304;2023-03-14T01:31:19;9.13;;;1.77;;
29938;SDS011;16799;50.844;5.304;2023-03-14T01:33:44;14.43;;;2.33;;
29938;SDS011;16799;50.844;5.304;2023-03-14T01:36:11;9.53;;;1.77;;
29938;SDS011;16799;50.844;5.304;2023-03-14T01:38:38;5.57;;;2.17;;
29938;SDS011;16799;50.844;5.304;2023-03-14T01:41:05;6.67;;;2.43;;
29938;SDS011;16799;50.844;5.304;2023-03-14T01:43:31;22.63;;;3.17;;
29938;SDS011;16799;50.844;5.304;2023-03-14T01:49:33;13.20;;;2.43;;
29938;SDS011;16799;50.844;5.304;2023-03-14T01:51:34;11.33;;;2.10;;
29938;SDS011;16799;50.844;5.304;2023-03-14T01:54:29;6.07;;;2.20;;
29938;SDS011;16799;50.844;5.304;2023-03-14T01:57:32;13.80;;;2.80;;
29938;SDS011;16799;50.844;5.304;2023-03-14T02:00:00;11.20;;;2.20;;
29938;SDS011;16799;50.844;5.304;2023-03-14T02:02:30;21.10;;;3.30;;
29938;SDS011;16799;50.844;5.304;2023-03-14T02:04:57;5.00;;;2.07;;
29938;SDS011;16799;50.844;5.304;2023-03-14T02:09:58;10.20;;;2.43;;
29938;SDS011;16799;50.844;5.304;2023-03-14T02:12:26;9.80;;;2.93;;
29938;SDS011;16799;50.844;5.304;2023-03-14T02:14:52;17.20;;;3.23;;
29938;SDS011;16799;50.844;5.304;2023-03-14T02:17:18;8.87;;;2.53;;
29938;SDS011;16799;50.844;5.304;2023-03-14T02:22:33;18.30;;;2.67;;
29938;SDS011;16799;50.844;5.304;2023-03-14T02:27:37;13.53;;;2.50;;
29938;SDS011;16799;50.844;5.304;2023-03-14T02:30:05;7.23;;;1.87;;
29938;SDS011;16799;50.844;5.304;2023-03-14T02:32:41;16.97;;;2.10;;
29938;SDS011;16799;50.844;5.304;2023-03-14T02:35:11;17.33;;;2.33;;
29938;SDS011;16799;50.844;5.304;2023-03-14T02:37:59;17.10;;;1.77;;
29938;SDS011;16799;50.844;5.304;2023-03-14T02:40:32;11.27;;;1.67;;
29938;SDS011;16799;50.844;5.304;2023-03-14T02:42:58;4.63;;;1.77;;
29938;SDS011;16799;50.844;5.304;2023-03-14T02:47:57;5.77;;;1.33;;
29938;SDS011;16799;50.844;5.304;2023-03-14T02:50:30;8.60;;;1.50;;
29938;SDS011;16799;50.844;5.304;2023-03-14T02:52:59;5.10;;;1.33;;
29938;SDS011;16799;50.844;5.304;2023-03-14T02:55:24;2.00;;;1.40;;
29938;SDS011;16799;50.844;5.304;2023-03-14T02:57:52;1.57;;;0.83;;
29938;SDS011;16799;50.844;5.304;2023-03-14T03:00:18;4.10;;;1.00;;
29938;SDS011;16799;50.844;5.304;2023-03-14T03:02:44;4.20;;;2.00;;
29938;SDS011;16799;50.844;5.304;2023-03-14T03:05:10;5.00;;;1.10;;
29938;SDS011;16799;50.844;5.304;2023-03-14T03:07:36;7.13;;;1.97;;
29938;SDS011;16799;50.844;5.304;2023-03-14T03:10:02;15.73;;;1.97;;
29938;SDS011;16799;50.844;5.304;2023-03-14T03:12:28;4.30;;;1.20;;
29938;SDS011;16799;50.844;5.304;2023-03-14T03:14:53;1.53;;;1.10;;
29938;SDS011;16799;50.844;5.304;2023-03-14T03:17:19;5.53;;;1.57;;
29938;SDS011;16799;50.844;5.304;2023-03-14T03:19:45;10.60;;;2.10;;
29938;SDS011;16799;50.844;5.304;2023-03-14T03:22:10;13.40;;;3.23;;
29938;SDS011;16799;50.844;5.304;2023-03-14T03:24:36;9.47;;;2.60;;
29938;SDS011;16799;50.844;5.304;2023-03-14T03:27:02;7.90;;;3.10;;
29938;SDS011;16799;50.844;5.304;2023-03-14T03:29:27;12.87;;;3.10;;
29938;SDS011;16799;50.844;5.304;2023-03-14T03:31:53;9.97;;;3.30;;
29938;SDS011;16799;50.844;5.304;2023-03-14T03:34:19;16.73;;;3.77;;
29938;SDS011;16799;50.844;5.304;2023-03-14T03:36:45;13.13;;;3.10;;
29938;SDS011;16799;50.844;5.304;2023-03-14T03:39:10;7.33;;;2.17;;
29938;SDS011;16799;50.844;5.304;2023-03-14T03:41:36;13.73;;;3.30;;
29938;SDS011;16799;50.844;5.304;2023-03-14T03:44:02;9.73;;;2.40;;
29938;SDS011;16799;50.844;5.304;2023-03-14T03:46:27;16.37;;;3.47;;
29938;SDS011;16799;50.844;5.304;2023-03-14T03:48:59;10.47;;;2.07;;
29938;SDS011;16799;50.844;5.304;2023-03-14T03:51:25;4.60;;;2.43;;
29938;SDS011;16799;50.844;5.304;2023-03-14T03:53:51;3.40;;;2.03;;
29938;SDS011;16799;50.844;5.304;2023-03-14T03:56:17;8.07;;;2.13;;
29938;SDS011;16799;50.844;5.304;2023-03-14T03:58:43;8.50;;;2.30;;
29938;SDS011;16799;50.844;5.304;2023-03-14T04:01:09;8.90;;;1.83;;
29938;SDS011;16799;50.844;5.304;2023-03-14T04:03:35;6.33;;;1.43;;
29938;SDS011;16799;50.844;5.304;2023-03-14T04:06:04;2.80;;;1.67;;
29938;SDS011;16799;50.844;5.304;2023-03-14T04:08:32;6.97;;;2.23;;
29938;SDS011;16799;50.844;5.304;2023-03-14T04:10:58;2.50;;;1.67;;
29938;SDS011;16799;50.844;5.304;2023-03-14T04:13:25;3.17;;;1.40;;
29938;SDS011;16799;50.844;5.304;2023-03-14T04:15:52;1.73;;;1.13;;
29938;SDS011;16799;50.844;5.304;2023-03-14T04:18:18;6.43;;;1.33;;
29938;SDS011;16799;50.844;5.304;2023-03-14T04:20:44;8.63;;;1.63;;
29938;SDS011;16799;50.844;5.304;2023-03-14T04:23:10;3.43;;;1.23;;
29938;SDS011;16799;50.844;5.304;2023-03-14T04:25:36;4.60;;;1.67;;
29938;SDS011;16799;50.844;5.304;2023-03-14T04:28:02;4.33;;;1.80;;
29938;SDS011;16799;50.844;5.304;2023-03-14T04:30:29;2.60;;;0.90;;
29938;SDS011;16799;50.844;5.304;2023-03-14T04:32:55;2.20;;;1.87;;
29938;SDS011;16799;50.844;5.304;2023-03-14T04:35:20;3.73;;;1.23;;
29938;SDS011;16799;50.844;5.304;2023-03-14T04:37:46;3.50;;;1.00;;
29938;SDS011;16799;50.844;5.304;2023-03-14T04:40:14;2.93;;;0.77;;
29938;SDS011;16799;50.844;5.304;2023-03-14T04:42:40;9.50;;;0.97;;
29938;SDS011;16799;50.844;5.304;2023-03-14T04:45:06;1.00;;;0.70;;
29938;SDS011;16799;50.844;5.304;2023-03-14T04:47:32;0.73;;;0.73;;
29938;SDS011;16799;50.844;5.304;2023-03-14T04:49:58;1.30;;;0.80;;
29938;SDS011;16799;50.844;5.304;2023-03-14T04:52:25;0.90;;;0.70;;
29938;SDS011;16799;50.844;5.304;2023-03-14T04:54:51;2.07;;;0.63;;
29938;SDS011;16799;50.844;5.304;2023-03-14T04:57:16;1.00;;;0.50;;
29938;SDS011;16799;50.844;5.304;2023-03-14T04:59:42;8.90;;;0.70;;
29938;SDS011;16799;50.844;5.304;2023-03-14T05:02:08;1.00;;;0.60;;
29938;SDS011;16799;50.844;5.304;2023-03-14T05:04:34;3.40;;;0.60;;
29938;SDS011;16799;50.844;5.304;2023-03-14T05:06:59;0.60;;;0.60;;
29938;SDS011;16799;50.844;5.304;2023-03-14T05:09:25;1.83;;;0.67;;
29938;SDS011;16799;50.844;5.304;2023-03-14T05:11:51;0.73;;;0.73;;
29938;SDS011;16799;50.844;5.304;2023-03-14T05:14:17;1.07;;;0.63;;
29938;SDS011;16799;50.844;5.304;2023-03-14T05:16:42;0.77;;;0.50;;
29938;SDS011;16799;50.844;5.304;2023-03-14T05:19:08;1.43;;;0.50;;
29938;SDS011;16799;50.844;5.304;2023-03-14T05:21:35;2.50;;;0.60;;
29938;SDS011;16799;50.844;5.304;2023-03-14T05:24:02;1.17;;;0.50;;
29938;SDS011;16799;50.844;5.304;2023-03-14T05:26:27;0.97;;;0.63;;
29938;SDS011;16799;50.844;5.304;2023-03-14T05:28:54;1.13;;;1.00;;
29938;SDS011;16799;50.844;5.304;2023-03-14T05:31:19;1.63;;;0.80;;
29938;SDS011;16799;50.844;5.304;2023-03-14T05:33:45;2.13;;;0.60;;
29938;SDS011;16799;50.844;5.304;2023-03-14T05:36:11;1.83;;;0.90;;
29938;SDS011;16799;50.844;5.304;2023-03-14T05:38:36;0.50;;;0.50;;
29938;SDS011;16799;50.844;5.304;2023-03-14T05:41:02;0.80;;;0.80;;
29938;SDS011;16799;50.844;5.304;2023-03-14T05:43:28;2.20;;;0.90;;
29938;SDS011;16799;50.844;5.304;2023-03-14T05:45:53;0.73;;;0.67;;
29938;SDS011;16799;50.844;5.304;2023-03-14T05:48:19;0.80;;;0.70;;
29938;SDS011;16799;50.844;5.304;2023-03-14T05:50:46;1.93;;;1.00;;
29938;SDS011;16799;50.844;5.304;2023-03-14T05:53:12;0.80;;;0.50;;
29938;SDS011;16799;50.844;5.304;2023-03-14T05:55:38;0.90;;;0.80;;
29938;SDS011;16799;50.844;5.304;2023-03-14T05:58:04;1.00;;;0.90;;
29938;SDS011;16799;50.844;5.304;2023-03-14T06:00:30;2.00;;;1.20;;
29938;SDS011;16799;50.844;5.304;2023-03-14T06:02:55;0.70;;;0.63;;
29938;SDS011;16799;50.844;5.304;2023-03-14T06:05:21;0.70;;;0.70;;
29938;SDS011;16799;50.844;5.304;2023-03-14T06:07:47;4.13;;;1.50;;
29938;SDS011;16799;50.844;5.304;2023-03-14T06:10:12;2.90;;;1.53;;
29938;SDS011;16799;50.844;5.304;2023-03-14T06:12:38;2.33;;;1.50;;
29938;SDS011;16799;50.844;5.304;2023-03-14T06:15:04;2.30;;;2.03;;
29938;SDS011;16799;50.844;5.304;2023-03-14T06:17:30;3.20;;;2.17;;
29938;SDS011;16799;50.844;5.304;2023-03-14T06:19:56;1.90;;;1.73;;
29938;SDS011;16799;50.844;5.304;2023-03-14T06:22:21;2.13;;;1.93;;
29938;SDS011;16799;50.844;5.304;2023-03-14T06:24:47;2.03;;;1.83;;
29938;SDS011;16799;50.844;5.304;2023-03-14T06:27:13;5.30;;;2.27;;
29938;SDS011;16799;50.844;5.304;2023-03-14T06:29:38;1.97;;;1.87;;
29938;SDS011;16799;50.844;5.304;2023-03-14T06:32:04;2.67;;;2.47;;
29938;SDS011;16799;50.844;5.304;2023-03-14T06:34:30;3.20;;;3.00;;
29938;SDS011;16799;50.844;5.304;2023-03-14T06:36:56;2.50;;;2.30;;
29938;SDS011;16799;50.844;5.304;2023-03-14T06:39:21;2.30;;;2.10;;
29938;SDS011;16799;50.844;5.304;2023-03-14T06:41:47;3.50;;;2.33;;
29938;SDS011;16799;50.844;5.304;2023-03-14T06:44:12;3.77;;;2.40;;
29938;SDS011;16799;50.844;5.304;2023-03-14T06:46:38;2.80;;;2.50;;
29938;SDS011;16799;50.844;5.304;2023-03-14T06:49:04;2.63;;;2.43;;
29938;SDS011;16799;50.844;5.304;2023-03-14T06:51:29;2.73;;;2.53;;
29938;SDS011;16799;50.844;5.304;2023-03-14T06:53:55;1.70;;;1.60;;
29938;SDS011;16799;50.844;5.304;2023-03-14T06:56:21;2.47;;;2.20;;
29938;SDS011;16799;50.844;5.304;2023-03-14T06:58:46;8.93;;;2.30;;
29938;SDS011;16799;50.844;5.304;2023-03-14T07:01:20;2.50;;;2.30;;
29938;SDS011;16799;50.844;5.304;2023-03-14T07:03:48;4.90;;;2.43;;
29938;SDS011;16799;50.844;5.304;2023-03-14T07:06:14;2.37;;;2.20;;
29938;SDS011;16799;50.844;5.304;2023-03-14T07:08:40;2.87;;;2.10;;
29938;SDS011;16799;50.844;5.304;2023-03-14T07:11:06;3.20;;;1.77;;
29938;SDS011;16799;50.844;5.304;2023-03-14T07:13:32;1.73;;;1.63;;
29938;SDS011;16799;50.844;5.304;2023-03-14T07:15:58;2.93;;;1.53;;
29938;SDS011;16799;50.844;5.304;2023-03-14T07:18:23;1.40;;;1.30;;
29938;SDS011;16799;50.844;5.304;2023-03-14T07:20:49;4.60;;;1.83;;
29938;SDS011;16799;50.844;5.304;2023-03-14T07:23:15;4.73;;;1.73;;
29938;SDS011;16799;50.844;5.304;2023-03-14T07:25:40;1.83;;;1.20;;
29938;SDS011;16799;50.844;5.304;2023-03-14T07:28:06;1.43;;;1.10;;
29938;SDS011;16799;50.844;5.304;2023-03-14T07:30:32;1.43;;;1.10;;
29938;SDS011;16799;50.844;5.304;2023-03-14T07:32:57;2.47;;;0.87;;
29938;SDS011;16799;50.844;5.304;2023-03-14T07:35:23;3.70;;;0.90;;
29938;SDS011;16799;50.844;5.304;2023-03-14T07:37:49;3.57;;;1.63;;
29938;SDS011;16799;50.844;5.304;2023-03-14T07:40:14;1.47;;;1.17;;
29938;SDS011;16799;50.844;5.304;2023-03-14T07:42:41;1.70;;;0.93;;
29938;SDS011;16799;50.844;5.304;2023-03-14T07:45:09;2.70;;;1.57;;
29938;SDS011;16799;50.844;5.304;2023-03-14T07:47:35;3.63;;;1.30;;
29938;SDS011;16799;50.844;5.304;2023-03-14T07:50:02;3.83;;;1.60;;
29938;SDS011;16799;50.844;5.304;2023-03-14T07:52:29;4.30;;;1.30;;
29938;SDS011;16799;50.844;5.304;2023-03-14T07:54:55;7.60;;;1.50;;
29938;SDS011;16799;50.844;5.304;2023-03-14T07:57:20;1.30;;;1.00;;
29938;SDS011;16799;50.844;5.304;2023-03-14T07:59:46;1.27;;;1.17;;
29938;SDS011;16799;50.844;5.304;2023-03-14T08:02:12;5.47;;;1.30;;
29938;SDS011;16799;50.844;5.304;2023-03-14T08:04:38;1.67;;;1.57;;
29938;SDS011;16799;50.844;5.304;2023-03-14T08:07:04;2.50;;;1.80;;
29938;SDS011;16799;50.844;5.304;2023-03-14T08:09:31;3.20;;;2.90;;
29938;SDS011;16799;50.844;5.304;2023-03-14T08:11:56;3.67;;;2.90;;
29938;SDS011;16799;50.844;5.304;2023-03-14T08:14:22;2.20;;;2.10;;
29938;SDS011;16799;50.844;5.304;2023-03-14T08:16:49;2.83;;;2.30;;
29938;SDS011;16799;50.844;5.304;2023-03-14T08:19:15;4.00;;;3.60;;
29938;SDS011;16799;50.844;5.304;2023-03-14T08:21:41;1.90;;;1.70;;
29938;SDS011;16799;50.844;5.304;2023-03-14T08:24:07;1.53;;;1.43;;
29938;SDS011;16799;50.844;5.304;2023-03-14T08:26:32;1.80;;;1.50;;
29938;SDS011;16799;50.844;5.304;2023-03-14T08:28:58;1.60;;;1.50;;
29938;SDS011;16799;50.844;5.304;2023-03-14T08:31:24;1.80;;;1.70;;
29938;SDS011;16799;50.844;5.304;2023-03-14T08:33:50;1.50;;;0.93;;
29938;SDS011;16799;50.844;5.304;2023-03-14T08:36:17;2.40;;;0.80;;
29938;SDS011;16799;50.844;5.304;2023-03-14T08:38:43;0.80;;;0.63;;
29938;SDS011;16799;50.844;5.304;2023-03-14T08:41:09;1.30;;;1.20;;
29938;SDS011;16799;50.844;5.304;2023-03-14T08:43:35;1.57;;;1.43;;
29938;SDS011;16799;50.844;5.304;2023-03-14T08:46:02;4.90;;;1.73;;
29938;SDS011;16799;50.844;5.304;2023-03-14T08:48:28;10.63;;;1.40;;
29938;SDS011;16799;50.844;5.304;2023-03-14T08:50:55;1.30;;;1.20;;
29938;SDS011;16799;50.844;5.304;2023-03-14T08:53:22;1.30;;;1.20;;
29938;SDS011;16799;50.844;5.304;2023-03-14T08:55:54;2.80;;;1.97;;
29938;SDS011;16799;50.844;5.304;2023-03-14T08:58:19;2.17;;;1.40;;
29938;SDS011;16799;50.844;5.304;2023-03-14T09:00:46;2.07;;;1.80;;
29938;SDS011;16799;50.844;5.304;2023-03-14T09:03:12;4.23;;;2.30;;
29938;SDS011;16799;50.844;5.304;2023-03-14T09:05:38;2.70;;;1.27;;
29938;SDS011;16799;50.844;5.304;2023-03-14T09:08:03;1.47;;;1.37;;
29938;SDS011;16799;50.844;5.304;2023-03-14T09:10:29;1.80;;;1.40;;
29938;SDS011;16799;50.844;5.304;2023-03-14T09:12:55;5.20;;;2.23;;
29938;SDS011;16799;50.844;5.304;2023-03-14T09:15:22;5.87;;;2.27;;
29938;SDS011;16799;50.844;5.304;2023-03-14T09:17:47;1.57;;;1.47;;
29938;SDS011;16799;50.844;5.304;2023-03-14T09:20:13;1.70;;;1.40;;
29938;SDS011;16799;50.844;5.304;2023-03-14T09:22:39;1.87;;;1.77;;
29938;SDS011;16799;50.844;5.304;2023-03-14T09:25:05;3.23;;;1.70;;
29938;SDS011;16799;50.844;5.304;2023-03-14T09:27:31;2.90;;;1.50;;
29938;SDS011;16799;50.844;5.304;2023-03-14T09:29:56;1.37;;;1.27;;
29938;SDS011;16799;50.844;5.304;2023-03-14T09:32:22;2.07;;;1.97;;
29938;SDS011;16799;50.844;5.304;2023-03-14T09:34:48;2.27;;;1.40;;
29938;SDS011;16799;50.844;5.304;2023-03-14T09:37:13;3.60;;;2.47;;
29938;SDS011;16799;50.844;5.304;2023-03-14T09:39:41;4.40;;;1.77;;
29938;SDS011;16799;50.844;5.304;2023-03-14T09:42:07;1.40;;;1.30;;
29938;SDS011;16799;50.844;5.304;2023-03-14T09:44:37;1.13;;;1.03;;
29938;SDS011;16799;50.844;5.304;2023-03-14T09:47:09;1.50;;;1.10;;
29938;SDS011;16799;50.844;5.304;2023-03-14T09:49:41;2.17;;;1.40;;
29938;SDS011;16799;50.844;5.304;2023-03-14T09:52:29;4.70;;;1.30;;
29938;SDS011;16799;50.844;5.304;2023-03-14T09:54:58;0.90;;;0.80;;
29938;SDS011;16799;50.844;5.304;2023-03-14T09:57:27;1.53;;;0.80;;
29938;SDS011;16799;50.844;5.304;2023-03-14T09:59:54;7.00;;;1.13;;
29938;SDS011;16799;50.844;5.304;2023-03-14T10:02:24;3.60;;;0.77;;
29938;SDS011;16799;50.844;5.304;2023-03-14T10:04:58;0.90;;;0.83;;
29938;SDS011;16799;50.844;5.304;2023-03-14T10:07:28;5.13;;;2.10;;
29938;SDS011;16799;50.844;5.304;2023-03-14T10:09:55;1.50;;;0.80;;
29938;SDS011;16799;50.844;5.304;2023-03-14T10:12:31;4.40;;;1.00;;
29938;SDS011;16799;50.844;5.304;2023-03-14T10:15:01;3.37;;;0.73;;
29938;SDS011;16799;50.844;5.304;2023-03-14T10:17:29;3.53;;;0.80;;
29938;SDS011;16799;50.844;5.304;2023-03-14T10:20:04;1.40;;;1.07;;
29938;SDS011;16799;50.844;5.304;2023-03-14T10:22:31;1.50;;;1.17;;
29938;SDS011;16799;50.844;5.304;2023-03-14T10:25:06;3.43;;;0.77;;
29938;SDS011;16799;50.844;5.304;2023-03-14T10:28:03;1.37;;;1.20;;
29938;SDS011;16799;50.844;5.304;2023-03-14T10:30:34;3.03;;;2.10;;
29938;SDS011;16799;50.844;5.304;2023-03-14T10:33:11;3.17;;;2.13;;
29938;SDS011;16799;50.844;5.304;2023-03-14T10:35:39;4.30;;;2.80;;
29938;SDS011;16799;50.844;5.304;2023-03-14T10:38:10;3.00;;;2.80;;
29938;SDS011;16799;50.844;5.304;2023-03-14T10:40:40;1.70;;;1.60;;
29938;SDS011;16799;50.844;5.304;2023-03-14T10:43:13;1.00;;;0.77;;
29938;SDS011;16799;50.844;5.304;2023-03-14T10:45:51;2.87;;;0.93;;
29938;SDS011;16799;50.844;5.304;2023-03-14T10:48:32;2.70;;;1.27;;
29938;SDS011;16799;50.844;5.304;2023-03-14T10:53:49;2.70;;;0.97;;
29938;SDS011;16799;50.844;5.304;2023-03-14T10:56:22;0.60;;;0.50;;
29938;SDS011;16799;50.844;5.304;2023-03-14T10:58:49;0.60;;;0.60;;
29938;SDS011;16799;50.844;5.304;2023-03-14T11:04:02;3.17;;;0.60;;
29938;SDS011;16799;50.844;5.304;2023-03-14T11:06:42;0.90;;;0.70;;
29938;SDS011;16799;50.844;5.304;2023-03-14T11:11:45;2.60;;;1.07;;
29938;SDS011;16799;50.844;5.304;2023-03-14T11:17:18;1.77;;;1.50;;
29938;SDS011;16799;50.844;5.304;2023-03-14T11:19:46;2.00;;;1.37;;
29938;SDS011;16799;50.844;5.304;2023-03-14T11:31:05;1.03;;;0.93;;
29938;SDS011;16799;50.844;5.304;2023-03-14T11:33:36;2.37;;;0.90;;
29938;SDS011;16799;50.844;5.304;2023-03-14T11:36:07;3.20;;;1.00;;
29938;SDS011;16799;50.844;5.304;2023-03-14T11:38:50;1.13;;;0.83;;
29938;SDS011;16799;50.844;5.304;2023-03-14T11:41:22;2.70;;;1.70;;
29938;SDS011;16799;50.844;5.304;2023-03-14T11:43:55;0.90;;;0.90;;
29938;SDS011;16799;50.844;5.304;2023-03-14T11:46:26;4.93;;;1.03;;
29938;SDS011;16799;50.844;5.304;2023-03-14T11:51:46;13.13;;;1.43;;
29938;SDS011;16799;50.844;5.304;2023-03-14T12:02:28;0.77;;;0.77;;
29938;SDS011;16799;50.844;5.304;2023-03-14T12:08:01;2.23;;;1.20;;
29938;SDS011;16799;50.844;5.304;2023-03-14T12:10:36;1.27;;;1.17;;
29938;SDS011;16799;50.844;5.304;2023-03-14T12:13:03;1.40;;;1.00;;
29938;SDS011;16799;50.844;5.304;2023-03-14T12:15:29;1.47;;;1.37;;
29938;SDS011;16799;50.844;5.304;2023-03-14T12:17:55;5.00;;;1.30;;
29938;SDS011;16799;50.844;5.304;2023-03-14T12:20:22;2.80;;;1.37;;
29938;SDS011;16799;50.844;5.304;2023-03-14T12:22:50;1.27;;;1.17;;
29938;SDS011;16799;50.844;5.304;2023-03-14T12:25:28;2.07;;;1.73;;
29938;SDS011;16799;50.844;5.304;2023-03-14T12:35:43;2.73;;;1.33;;
29938;SDS011;16799;50.844;5.304;2023-03-14T12:44:29;2.40;;;1.73;;
29938;SDS011;16799;50.844;5.304;2023-03-14T12:46:54;2.33;;;2.13;;
29938;SDS011;16799;50.844;5.304;2023-03-14T12:49:30;4.67;;;2.00;;
29938;SDS011;16799;50.844;5.304;2023-03-14T12:52:00;4.13;;;2.20;;
29938;SDS011;16799;50.844;5.304;2023-03-14T12:57:13;4.90;;;2.30;;
29938;SDS011;16799;50.844;5.304;2023-03-14T13:07:31;9.30;;;2.53;;
29938;SDS011;16799;50.844;5.304;2023-03-14T13:12:31;13.37;;;2.00;;
29938;SDS011;16799;50.844;5.304;2023-03-14T13:15:16;7.93;;;2.70;;
29938;SDS011;16799;50.844;5.304;2023-03-14T13:17:45;9.43;;;2.57;;
29938;SDS011;16799;50.844;5.304;2023-03-14T13:20:18;9.67;;;2.57;;
29938;SDS011;16799;50.844;5.304;2023-03-14T13:22:56;12.33;;;3.27;;
29938;SDS011;16799;50.844;5.304;2023-03-14T13:25:22;13.37;;;3.90;;
29938;SDS011;16799;50.844;5.304;2023-03-14T13:27:48;7.43;;;2.30;;
29938;SDS011;16799;50.844;5.304;2023-03-14T13:30:27;11.40;;;2.47;;
29938;SDS011;16799;50.844;5.304;2023-03-14T13:33:05;6.23;;;1.87;;
29938;SDS011;16799;50.844;5.304;2023-03-14T13:35:38;3.83;;;2.23;;
29938;SDS011;16799;50.844;5.304;2023-03-14T13:38:24;10.10;;;3.60;;
29938;SDS011;16799;50.844;5.304;2023-03-14T13:40:51;16.50;;;4.40;;
29938;SDS011;16799;50.844;5.304;2023-03-14T13:43:25;11.33;;;4.17;;
29938;SDS011;16799;50.844;5.304;2023-03-14T13:46:01;6.40;;;2.03;;
29938;SDS011;16799;50.844;5.304;2023-03-14T13:48:50;5.20;;;2.83;;
29938;SDS011;16799;50.844;5.304;2023-03-14T13:51:22;5.00;;;4.30;;
29938;SDS011;16799;50.844;5.304;2023-03-14T13:53:52;16.30;;;3.80;;
29938;SDS011;16799;50.844;5.304;2023-03-14T13:56:22;7.43;;;3.47;;
29938;SDS011;16799;50.844;5.304;2023-03-14T13:58:51;10.67;;;3.03;;
29938;SDS011;16799;50.844;5.304;2023-03-14T14:03:47;3.57;;;2.40;;
29938;SDS011;16799;50.844;5.304;2023-03-14T14:08:48;21.17;;;2.77;;
29938;SDS011;16799;50.844;5.304;2023-03-14T14:11:22;11.00;;;3.00;;
29938;SDS011;16799;50.844;5.304;2023-03-14T14:14:02;9.63;;;2.87;;
29938;SDS011;16799;50.844;5.304;2023-03-14T14:16:30;7.87;;;3.47;;
29938;SDS011;16799;50.844;5.304;2023-03-14T14:18:56;8.30;;;3.20;;
29938;SDS011;16799;50.844;5.304;2023-03-14T14:21:23;18.87;;;3.80;;
29938;SDS011;16799;50.844;5.304;2023-03-14T14:23:50;7.83;;;3.90;;
29938;SDS011;16799;50.844;5.304;2023-03-14T14:26:17;12.47;;;3.47;;
29938;SDS011;16799;50.844;5.304;2023-03-14T14:28:44;8.63;;;2.90;;
29938;SDS011;16799;50.844;5.304;2023-03-14T14:33:43;5.47;;;3.80;;
29938;SDS011;16799;50.844;5.304;2023-03-14T14:38:53;8.80;;;2.20;;
29938;SDS011;16799;50.844;5.304;2023-03-14T14:41:26;19.17;;;2.10;;
29938;SDS011;16799;50.844;5.304;2023-03-14T14:43:56;9.20;;;2.40;;
29938;SDS011;16799;50.844;5.304;2023-03-14T14:46:25;7.40;;;2.50;;
29938;SDS011;16799;50.844;5.304;2023-03-14T14:48:57;5.57;;;1.90;;
29938;SDS011;16799;50.844;5.304;2023-03-14T14:51:34;7.23;;;2.43;;
29938;SDS011;16799;50.844;5.304;2023-03-14T14:54:12;14.20;;;3.10;;
29938;SDS011;16799;50.844;5.304;2023-03-14T14:56:38;4.27;;;2.60;;
29938;SDS011;16799;50.844;5.304;2023-03-14T14:59:05;8.43;;;3.17;;
29938;SDS011;16799;50.844;5.304;2023-03-14T15:01:41;6.33;;;2.03;;
29938;SDS011;16799;50.844;5.304;2023-03-14T15:04:11;9.30;;;2.77;;
29938;SDS011;16799;50.844;5.304;2023-03-14T15:06:39;14.10;;;3.83;;
29938;SDS011;16799;50.844;5.304;2023-03-14T15:09:09;19.13;;;2.50;;
29938;SDS011;16799;50.844;5.304;2023-03-14T15:11:35;12.43;;;3.97;;
29938;SDS011;16799;50.844;5.304;2023-03-14T15:14:01;13.13;;;4.60;;
29938;SDS011;16799;50.844;5.304;2023-03-14T15:16:28;12.17;;;3.23;;
29938;SDS011;16799;50.844;5.304;2023-03-14T15:18:56;27.50;;;2.90;;
29938;SDS011;16799;50.844;5.304;2023-03-14T15:21:24;12.50;;;3.40;;
29938;SDS011;16799;50.844;5.304;2023-03-14T15:23:51;30.10;;;4.30;;
29938;SDS011;16799;50.844;5.304;2023-03-14T15:26:19;9.27;;;3.03;;
29938;SDS011;16799;50.844;5.304;2023-03-14T15:28:47;17.10;;;3.43;;
29938;SDS011;16799;50.844;5.304;2023-03-14T15:31:14;14.73;;;3.60;;
29938;SDS011;16799;50.844;5.304;2023-03-14T15:33:40;19.83;;;2.80;;
29938;SDS011;16799;50.844;5.304;2023-03-14T15:36:25;25.80;;;4.00;;
29938;SDS011;16799;50.844;5.304;2023-03-14T15:38:52;3.40;;;2.60;;
29938;SDS011;16799;50.844;5.304;2023-03-14T15:41:19;14.07;;;5.70;;
29938;SDS011;16799;50.844;5.304;2023-03-14T15:43:46;18.83;;;4.03;;
29938;SDS011;16799;50.844;5.304;2023-03-14T15:46:12;4.80;;;2.10;;
29938;SDS011;16799;50.844;5.304;2023-03-14T15:48:39;18.87;;;2.93;;
29938;SDS011;16799;50.844;5.304;2023-03-14T15:51:05;8.33;;;1.83;;
29938;SDS011;16799;50.844;5.304;2023-03-14T15:53:31;11.87;;;2.47;;
29938;SDS011;16799;50.844;5.304;2023-03-14T15:55:57;7.30;;;2.67;;
29938;SDS011;16799;50.844;5.304;2023-03-14T15:58:23;7.20;;;1.60;;
29938;SDS011;16799;50.844;5.304;2023-03-14T16:00:49;3.77;;;1.80;;
29938;SDS011;16799;50.844;5.304;2023-03-14T16:03:15;2.40;;;1.97;;
29938;SDS011;16799;50.844;5.304;2023-03-14T16:05:41;8.43;;;1.80;;
29938;SDS011;16799;50.844;5.304;2023-03-14T16:08:07;3.30;;;1.43;;
29938;SDS011;16799;50.844;5.304;2023-03-14T16:10:33;8.20;;;2.20;;
29938;SDS011;16799;50.844;5.304;2023-03-14T16:12:59;4.83;;;1.70;;
29938;SDS011;16799;50.844;5.304;2023-03-14T16:15:25;6.17;;;1.80;;